sensor_id;sensor_type;location;lat;lon;timestamp;pressure;altitude;pressure_sealevel;temperature
72054;BMP280;59918;51.280;7.950;2023-01-19T00:02:11;96586.84;;;1.27
72054;BMP280;59918;51.280;7.950;2023-01-19T00:04:40;96587.47;;;1.29
72054;BMP280;59918;51.280;7.950;2023-01-19T00:07:07;96582.41;;;1.29
72054;BMP280;59918;51.280;7.950;2023-01-19T00:09:32;96584.72;;;1.31
72054;BMP280;59918;51.280;7.950;2023-01-19T00:11:58;96589.63;;;1.32
72054;BMP280;59918;51.280;7.950;2023-01-19T00:14:24;96589.47;;;1.34
72054;BMP280;59918;51.280;7.950;2023-01-19T00:16:52;96599.22;;;1.37
72054;BMP280;59918;51.280;7.950;2023-01-19T00:19:17;96591.63;;;1.37
72054;BMP280;59918;51.280;7.950;2023-01-19T00:21:42;96599.84;;;1.39
72054;BMP280;59918;51.280;7.950;2023-01-19T00:24:09;96600.03;;;1.37
72054;BMP280;59918;51.280;7.950;2023-01-19T00:26:34;96605.09;;;1.37
72054;BMP280;59918;51.280;7.950;2023-01-19T00:29:00;96608.41;;;1.38
72054;BMP280;59918;51.280;7.950;2023-01-19T00:31:28;96603.94;;;1.40
72054;BMP280;59918;51.280;7.950;2023-01-19T00:33:53;96609.03;;;1.40
72054;BMP280;59918;51.280;7.950;2023-01-19T00:36:18;96610.56;;;1.41
72054;BMP280;59918;51.280;7.950;2023-01-19T00:38:44;96608.84;;;1.41
72054;BMP280;59918;51.280;7.950;2023-01-19T00:41:09;96611.78;;;1.44
72054;BMP280;59918;51.280;7.950;2023-01-19T00:43:34;96609.25;;;1.44
72054;BMP280;59918;51.280;7.950;2023-01-19T00:45:59;96605.94;;;1.44
72054;BMP280;59918;51.280;7.950;2023-01-19T00:48:30;96615.13;;;1.45
72054;BMP280;59918;51.280;7.950;2023-01-19T00:50:56;96609.47;;;1.43
72054;BMP280;59918;51.280;7.950;2023-01-19T00:53:21;96602.81;;;1.42
72054;BMP280;59918;51.280;7.950;2023-01-19T00:55:46;96606.13;;;1.43
72054;BMP280;59918;51.280;7.950;2023-01-19T00:58:11;96606.13;;;1.43
72054;BMP280;59918;51.280;7.950;2023-01-19T01:00:43;96596.59;;;1.44
72054;BMP280;59918;51.280;7.950;2023-01-19T01:03:08;96606.56;;;1.46
72054;BMP280;59918;51.280;7.950;2023-01-19T01:05:33;96594.88;;;1.45
72054;BMP280;59918;51.280;7.950;2023-01-19T01:07:59;96599.41;;;1.49
72054;BMP280;59918;51.280;7.950;2023-01-19T01:10:28;96607.63;;;1.51
72054;BMP280;59918;51.280;7.950;2023-01-19T01:12:54;96605.69;;;1.53
72054;BMP280;59918;51.280;7.950;2023-01-19T01:15:21;96600.63;;;1.53
72054;BMP280;59918;51.280;7.950;2023-01-19T01:17:47;96596.16;;;1.55
72054;BMP280;59918;51.280;7.950;2023-01-19T01:20:20;96589.34;;;1.56
72054;BMP280;59918;51.280;7.950;2023-01-19T01:22:48;96597.72;;;1.56
72054;BMP280;59918;51.280;7.950;2023-01-19T01:25:20;96598.53;;;1.57
72054;BMP280;59918;51.280;7.950;2023-01-19T01:27:45;96591.63;;;1.51
72054;BMP280;59918;51.280;7.950;2023-01-19T01:30:12;96591.81;;;1.49
72054;BMP280;59918;51.280;7.950;2023-01-19T01:32:42;96596.69;;;1.51
72054;BMP280;59918;51.280;7.950;2023-01-19T01:35:08;96607.25;;;1.54
72054;BMP280;59918;51.280;7.950;2023-01-19T01:37:34;96612.31;;;1.54
72054;BMP280;59918;51.280;7.950;2023-01-19T01:40:00;96619.91;;;1.54
72054;BMP280;59918;51.280;7.950;2023-01-19T01:42:32;96610.38;;;1.56
72054;BMP280;59918;51.280;7.950;2023-01-19T01:44:58;96616.53;;;1.47
72054;BMP280;59918;51.280;7.950;2023-01-19T01:47:35;96609.16;;;1.52
72054;BMP280;59918;51.280;7.950;2023-01-19T01:50:22;96601.41;;;1.54
72054;BMP280;59918;51.280;7.950;2023-01-19T01:53:01;96608.22;;;1.53
72054;BMP280;59918;51.280;7.950;2023-01-19T01:55:31;96613.13;;;1.55
72054;BMP280;59918;51.280;7.950;2023-01-19T01:58:07;96608.06;;;1.55
72054;BMP280;59918;51.280;7.950;2023-01-19T02:00:33;96611.38;;;1.55
72054;BMP280;59918;51.280;7.950;2023-01-19T02:02:59;96617.22;;;1.56
72054;BMP280;59918;51.280;7.950;2023-01-19T02:05:33;96618.00;;;1.56
72054;BMP280;59918;51.280;7.950;2023-01-19T02:08:09;96610.59;;;1.55
72054;BMP280;59918;51.280;7.950;2023-01-19T02:10:37;96613.91;;;1.55
72054;BMP280;59918;51.280;7.950;2023-01-19T02:13:05;96617.81;;;1.58
72054;BMP280;59918;51.280;7.950;2023-01-19T02:15:31;96592.47;;;1.58
72054;BMP280;59918;51.280;7.950;2023-01-19T02:17:57;96595.63;;;1.60
72054;BMP280;59918;51.280;7.950;2023-01-19T02:20:25;96605.75;;;1.60
72054;BMP280;59918;51.280;7.950;2023-01-19T02:22:56;96602.28;;;1.61
72054;BMP280;59918;51.280;7.950;2023-01-19T02:25:25;96609.06;;;1.60
72054;BMP280;59918;51.280;7.950;2023-01-19T02:27:54;96603.06;;;1.61
72054;BMP280;59918;51.280;7.950;2023-01-19T02:30:19;96600.69;;;1.60
72054;BMP280;59918;51.280;7.950;2023-01-19T02:32:44;96600.63;;;1.53
72054;BMP280;59918;51.280;7.950;2023-01-19T02:35:11;96608.47;;;1.58
72054;BMP280;59918;51.280;7.950;2023-01-19T02:37:41;96610.81;;;1.60
72054;BMP280;59918;51.280;7.950;2023-01-19T02:40:10;96603.84;;;1.62
72054;BMP280;59918;51.280;7.950;2023-01-19T02:42:48;96602.06;;;1.62
72054;BMP280;59918;51.280;7.950;2023-01-19T02:45:19;96613.78;;;1.63
72054;BMP280;59918;51.280;7.950;2023-01-19T02:47:48;96616.34;;;1.63
72054;BMP280;59918;51.280;7.950;2023-01-19T02:50:42;96609.50;;;1.64
72054;BMP280;59918;51.280;7.950;2023-01-19T02:53:23;96618.88;;;1.63
72054;BMP280;59918;51.280;7.950;2023-01-19T02:56:22;96616.94;;;1.65
72054;BMP280;59918;51.280;7.950;2023-01-19T03:01:50;96614.25;;;1.67
72054;BMP280;59918;51.280;7.950;2023-01-19T03:07:13;96616.78;;;1.67
72054;BMP280;59918;51.280;7.950;2023-01-19T03:10:02;96622.63;;;1.67
72054;BMP280;59918;51.280;7.950;2023-01-19T03:12:59;96617.88;;;1.64
72054;BMP280;59918;51.280;7.950;2023-01-19T03:15:32;96603.50;;;1.65
72054;BMP280;59918;51.280;7.950;2023-01-19T03:17:59;96600.75;;;1.66
72054;BMP280;59918;51.280;7.950;2023-01-19T03:20:26;96600.75;;;1.66
72054;BMP280;59918;51.280;7.950;2023-01-19T03:23:00;96604.88;;;1.67
72054;BMP280;59918;51.280;7.950;2023-01-19T03:25:33;96598.59;;;1.63
72054;BMP280;59918;51.280;7.950;2023-01-19T03:28:00;96604.59;;;1.62
72054;BMP280;59918;51.280;7.950;2023-01-19T03:30:31;96593.69;;;1.62
72054;BMP280;59918;51.280;7.950;2023-01-19T03:33:07;96601.47;;;1.60
72054;BMP280;59918;51.280;7.950;2023-01-19T03:35:36;96602.44;;;1.59
72054;BMP280;59918;51.280;7.950;2023-01-19T03:38:09;96595.19;;;1.56
72054;BMP280;59918;51.280;7.950;2023-01-19T03:40:37;96598.31;;;1.58
72054;BMP280;59918;51.280;7.950;2023-01-19T03:43:09;96598.53;;;1.57
72054;BMP280;59918;51.280;7.950;2023-01-19T03:45:37;96593.63;;;1.55
72054;BMP280;59918;51.280;7.950;2023-01-19T03:48:03;96595.56;;;1.53
72054;BMP280;59918;51.280;7.950;2023-01-19T03:50:32;96602.53;;;1.51
72054;BMP280;59918;51.280;7.950;2023-01-19T03:55:25;96598.44;;;1.50
72054;BMP280;59918;51.280;7.950;2023-01-19T03:57:51;96600.97;;;1.50
72054;BMP280;59918;51.280;7.950;2023-01-19T04:00:19;96591.63;;;1.51
72054;BMP280;59918;51.280;7.950;2023-01-19T04:02:44;96595.91;;;1.50
72054;BMP280;59918;51.280;7.950;2023-01-19T04:05:09;96596.88;;;1.49
72054;BMP280;59918;51.280;7.950;2023-01-19T04:07:35;96597.47;;;1.51
72054;BMP280;59918;51.280;7.950;2023-01-19T04:10:00;96596.34;;;1.54
72054;BMP280;59918;51.280;7.950;2023-01-19T04:12:25;96589.88;;;1.51
72054;BMP280;59918;51.280;7.950;2023-01-19T04:14:50;96592.84;;;1.55
72054;BMP280;59918;51.280;7.950;2023-01-19T04:17:22;96591.25;;;1.54
72054;BMP280;59918;51.280;7.950;2023-01-19T04:19:47;96575.28;;;1.53
72054;BMP280;59918;51.280;7.950;2023-01-19T04:22:12;96587.97;;;1.53
72054;BMP280;59918;51.280;7.950;2023-01-19T04:24:37;96581.91;;;1.54
72054;BMP280;59918;51.280;7.950;2023-01-19T04:27:03;96586.97;;;1.54
72054;BMP280;59918;51.280;7.950;2023-01-19T04:29:34;96581.13;;;1.54
72054;BMP280;59918;51.280;7.950;2023-01-19T04:31:59;96582.09;;;1.53
72054;BMP280;59918;51.280;7.950;2023-01-19T04:34:24;96586.38;;;1.52
72054;BMP280;59918;51.280;7.950;2023-01-19T04:36:49;96577.03;;;1.53
72054;BMP280;59918;51.280;7.950;2023-01-19T04:39:14;96578.78;;;1.52
72054;BMP280;59918;51.280;7.950;2023-01-19T04:41:47;96569.44;;;1.53
72054;BMP280;59918;51.280;7.950;2023-01-19T04:44:12;96566.91;;;1.53
72054;BMP280;59918;51.280;7.950;2023-01-19T04:46:37;96569.25;;;1.54
72054;BMP280;59918;51.280;7.950;2023-01-19T04:49:03;96570.06;;;1.55
72054;BMP280;59918;51.280;7.950;2023-01-19T04:51:28;96578.44;;;1.55
72054;BMP280;59918;51.280;7.950;2023-01-19T04:53:56;96571.78;;;1.54
72054;BMP280;59918;51.280;7.950;2023-01-19T04:56:21;96576.66;;;1.56
72054;BMP280;59918;51.280;7.950;2023-01-19T04:58:46;96581.13;;;1.54
72054;BMP280;59918;51.280;7.950;2023-01-19T05:01:12;96577.81;;;1.53
72054;BMP280;59918;51.280;7.950;2023-01-19T05:03:37;96566.72;;;1.54
72054;BMP280;59918;51.280;7.950;2023-01-19T05:06:02;96571.00;;;1.54
72054;BMP280;59918;51.280;7.950;2023-01-19T05:08:27;96563.22;;;1.55
72054;BMP280;59918;51.280;7.950;2023-01-19T05:10:56;96568.72;;;1.59
72054;BMP280;59918;51.280;7.950;2023-01-19T05:13:21;96569.50;;;1.59
72054;BMP280;59918;51.280;7.950;2023-01-19T05:15:55;96576.13;;;1.60
72054;BMP280;59918;51.280;7.950;2023-01-19T05:18:21;96579.47;;;1.61
72054;BMP280;59918;51.280;7.950;2023-01-19T05:20:46;96579.66;;;1.59
72054;BMP280;59918;51.280;7.950;2023-01-19T05:23:11;96579.81;;;1.58
72054;BMP280;59918;51.280;7.950;2023-01-19T05:25:36;96574.56;;;1.59
72054;BMP280;59918;51.280;7.950;2023-01-19T05:28:02;96584.72;;;1.59
72054;BMP280;59918;51.280;7.950;2023-01-19T05:30:27;96583.31;;;1.57
72054;BMP280;59918;51.280;7.950;2023-01-19T05:32:59;96577.66;;;1.55
72054;BMP280;59918;51.280;7.950;2023-01-19T05:35:24;96580.97;;;1.55
72054;BMP280;59918;51.280;7.950;2023-01-19T05:37:49;96573.69;;;1.52
72054;BMP280;59918;51.280;7.950;2023-01-19T05:40:15;96572.16;;;1.51
72054;BMP280;59918;51.280;7.950;2023-01-19T05:42:40;96576.44;;;1.51
72054;BMP280;59918;51.280;7.950;2023-01-19T05:45:08;96567.84;;;1.52
72054;BMP280;59918;51.280;7.950;2023-01-19T05:47:34;96580.34;;;1.53
72054;BMP280;59918;51.280;7.950;2023-01-19T05:49:59;96569.63;;;1.51
72054;BMP280;59918;51.280;7.950;2023-01-19T05:52:24;96567.84;;;1.52
72054;BMP280;59918;51.280;7.950;2023-01-19T05:54:50;96575.63;;;1.50
72054;BMP280;59918;51.280;7.950;2023-01-19T05:57:16;96570.16;;;1.47
72054;BMP280;59918;51.280;7.950;2023-01-19T05:59:44;96578.88;;;1.44
72054;BMP280;59918;51.280;7.950;2023-01-19T06:02:09;96576.88;;;1.40
72054;BMP280;59918;51.280;7.950;2023-01-19T06:04:35;96574.25;;;1.34
72054;BMP280;59918;51.280;7.950;2023-01-19T06:07:00;96586.66;;;1.29
72054;BMP280;59918;51.280;7.950;2023-01-19T06:09:25;96584.31;;;1.27
72054;BMP280;59918;51.280;7.950;2023-01-19T06:11:50;96573.47;;;1.19
72054;BMP280;59918;51.280;7.950;2023-01-19T06:14:23;96581.50;;;1.22
72054;BMP280;59918;51.280;7.950;2023-01-19T06:16:49;96586.13;;;1.19
72054;BMP280;59918;51.280;7.950;2023-01-19T06:19:14;96590.41;;;1.18
72054;BMP280;59918;51.280;7.950;2023-01-19T06:21:39;96582.06;;;1.18
72054;BMP280;59918;51.280;7.950;2023-01-19T06:24:10;96588.50;;;1.20
72054;BMP280;59918;51.280;7.950;2023-01-19T06:26:36;96577.16;;;1.16
72054;BMP280;59918;51.280;7.950;2023-01-19T06:29:01;96582.06;;;1.18
72054;BMP280;59918;51.280;7.950;2023-01-19T06:31:26;96597.25;;;1.18
72054;BMP280;59918;51.280;7.950;2023-01-19T06:33:51;96595.50;;;1.18
72054;BMP280;59918;51.280;7.950;2023-01-19T06:36:20;96600.03;;;1.23
72054;BMP280;59918;51.280;7.950;2023-01-19T06:38:45;96600.03;;;1.23
72054;BMP280;59918;51.280;7.950;2023-01-19T06:41:10;96595.94;;;1.22
72054;BMP280;59918;51.280;7.950;2023-01-19T06:43:35;96595.94;;;1.22
72054;BMP280;59918;51.280;7.950;2023-01-19T06:46:01;96595.31;;;1.20
72054;BMP280;59918;51.280;7.950;2023-01-19T06:48:26;96607.63;;;1.23
72054;BMP280;59918;51.280;7.950;2023-01-19T06:50:51;96621.88;;;1.24
72054;BMP280;59918;51.280;7.950;2023-01-19T06:53:20;96617.56;;;1.24
72054;BMP280;59918;51.280;7.950;2023-01-19T06:55:45;96614.06;;;1.25
72054;BMP280;59918;51.280;7.950;2023-01-19T06:58:11;96613.13;;;1.26
72054;BMP280;59918;51.280;7.950;2023-01-19T07:00:36;96627.53;;;1.26
72054;BMP280;59918;51.280;7.950;2023-01-19T07:03:02;96640.19;;;1.26
72054;BMP280;59918;51.280;7.950;2023-01-19T07:05:27;96634.31;;;1.25
72054;BMP280;59918;51.280;7.950;2023-01-19T07:07:58;96631.78;;;1.25
72054;BMP280;59918;51.280;7.950;2023-01-19T07:10:23;96628.66;;;1.23
72054;BMP280;59918;51.280;7.950;2023-01-19T07:12:49;96651.03;;;1.20
72054;BMP280;59918;51.280;7.950;2023-01-19T07:15:20;96638.38;;;1.20
72054;BMP280;59918;51.280;7.950;2023-01-19T07:17:46;96637.75;;;1.18
72054;BMP280;59918;51.280;7.950;2023-01-19T07:20:12;96641.84;;;1.19
72054;BMP280;59918;51.280;7.950;2023-01-19T07:22:37;96642.63;;;1.19
72054;BMP280;59918;51.280;7.950;2023-01-19T07:25:03;96649.28;;;1.20
72054;BMP280;59918;51.280;7.950;2023-01-19T07:27:28;96646.38;;;1.23
72054;BMP280;59918;51.280;7.950;2023-01-19T07:29:59;96651.28;;;1.25
72054;BMP280;59918;51.280;7.950;2023-01-19T07:32:25;96651.44;;;1.23
72054;BMP280;59918;51.280;7.950;2023-01-19T07:34:50;96662.53;;;1.22
72054;BMP280;59918;51.280;7.950;2023-01-19T07:37:15;96659.03;;;1.23
72054;BMP280;59918;51.280;7.950;2023-01-19T07:39:40;96665.69;;;1.24
72054;BMP280;59918;51.280;7.950;2023-01-19T07:42:09;96678.19;;;1.26
72054;BMP280;59918;51.280;7.950;2023-01-19T07:44:34;96663.00;;;1.26
72054;BMP280;59918;51.280;7.950;2023-01-19T07:47:00;96674.34;;;1.30
72054;BMP280;59918;51.280;7.950;2023-01-19T07:49:25;96671.66;;;1.31
72054;BMP280;59918;51.280;7.950;2023-01-19T07:51:50;96683.34;;;1.32
72054;BMP280;59918;51.280;7.950;2023-01-19T07:54:15;96700.13;;;1.33
72054;BMP280;59918;51.280;7.950;2023-01-19T07:56:48;96689.63;;;1.36
72054;BMP280;59918;51.280;7.950;2023-01-19T07:59:13;96696.09;;;1.39
72054;BMP280;59918;51.280;7.950;2023-01-19T08:01:38;96701.75;;;1.41
72054;BMP280;59918;51.280;7.950;2023-01-19T08:04:04;96716.00;;;1.42
72054;BMP280;59918;51.280;7.950;2023-01-19T08:06:36;96706.50;;;1.44
72054;BMP280;59918;51.280;7.950;2023-01-19T08:09:02;96719.31;;;1.42
72054;BMP280;59918;51.280;7.950;2023-01-19T08:11:27;96715.84;;;1.43
72054;BMP280;59918;51.280;7.950;2023-01-19T08:13:52;96726.75;;;1.44
72054;BMP280;59918;51.280;7.950;2023-01-19T08:16:18;96728.31;;;1.44
72054;BMP280;59918;51.280;7.950;2023-01-19T08:18:46;96725.44;;;1.47
72054;BMP280;59918;51.280;7.950;2023-01-19T08:21:11;96727.22;;;1.47
72054;BMP280;59918;51.280;7.950;2023-01-19T08:23:37;96724.31;;;1.50
72054;BMP280;59918;51.280;7.950;2023-01-19T08:26:29;96732.34;;;1.53
72054;BMP280;59918;51.280;7.950;2023-01-19T08:28:55;96726.59;;;1.45
72054;BMP280;59918;51.280;7.950;2023-01-19T08:31:24;96728.00;;;1.47
72054;BMP280;59918;51.280;7.950;2023-01-19T08:33:50;96733.50;;;1.51
72054;BMP280;59918;51.280;7.950;2023-01-19T08:36:15;96737.59;;;1.52
72054;BMP280;59918;51.280;7.950;2023-01-19T08:38:42;96741.34;;;1.56
72054;BMP280;59918;51.280;7.950;2023-01-19T08:41:11;96740.81;;;1.60
72054;BMP280;59918;51.280;7.950;2023-01-19T08:43:39;96732.28;;;1.61
72054;BMP280;59918;51.280;7.950;2023-01-19T08:46:04;96745.72;;;1.62
72054;BMP280;59918;51.280;7.950;2023-01-19T08:48:30;96755.09;;;1.61
72054;BMP280;59918;51.280;7.950;2023-01-19T08:50:59;96739.50;;;1.64
72054;BMP280;59918;51.280;7.950;2023-01-19T08:53:24;96756.75;;;1.69
72054;BMP280;59918;51.280;7.950;2023-01-19T08:55:59;96757.53;;;1.69
72054;BMP280;59918;51.280;7.950;2023-01-19T08:58:24;96772.75;;;1.69
72054;BMP280;59918;51.280;7.950;2023-01-19T09:00:50;96768.44;;;1.70
72054;BMP280;59918;51.280;7.950;2023-01-19T09:03:15;96761.81;;;1.69
72054;BMP280;59918;51.280;7.950;2023-01-19T09:05:40;96777.81;;;1.69
72054;BMP280;59918;51.280;7.950;2023-01-19T09:08:08;96770.81;;;1.71
72054;BMP280;59918;51.280;7.950;2023-01-19T09:10:37;96777.13;;;1.75
72054;BMP280;59918;51.280;7.950;2023-01-19T09:13:06;96781.31;;;1.82
72054;BMP280;59918;51.280;7.950;2023-01-19T09:15:38;96797.22;;;1.91
72054;BMP280;59918;51.280;7.950;2023-01-19T09:18:04;96782.78;;;1.91
72054;BMP280;59918;51.280;7.950;2023-01-19T09:20:30;96785.25;;;1.99
72054;BMP280;59918;51.280;7.950;2023-01-19T09:23:02;96791.97;;;2.07
72054;BMP280;59918;51.280;7.950;2023-01-19T09:25:27;96793.81;;;2.13
72054;BMP280;59918;51.280;7.950;2023-01-19T09:27:52;96800.38;;;2.21
72054;BMP280;59918;51.280;7.950;2023-01-19T09:30:18;96796.53;;;2.25
72054;BMP280;59918;51.280;7.950;2023-01-19T09:32:44;96800.63;;;2.26
72054;BMP280;59918;51.280;7.950;2023-01-19T09:35:12;96803.16;;;2.26
72054;BMP280;59918;51.280;7.950;2023-01-19T09:37:38;96804.91;;;2.26
72054;BMP280;59918;51.280;7.950;2023-01-19T09:40:04;96808.22;;;2.26
72054;BMP280;59918;51.280;7.950;2023-01-19T09:42:43;96804.75;;;2.27
72054;BMP280;59918;51.280;7.950;2023-01-19T09:45:43;96815.22;;;2.24
72054;BMP280;59918;51.280;7.950;2023-01-19T09:48:29;96810.16;;;2.24
72054;BMP280;59918;51.280;7.950;2023-01-19T09:51:03;96811.75;;;2.25
72054;BMP280;59918;51.280;7.950;2023-01-19T09:53:53;96823.00;;;2.23
72054;BMP280;59918;51.280;7.950;2023-01-19T09:56:20;96820.47;;;2.23
72054;BMP280;59918;51.280;7.950;2023-01-19T09:58:49;96823.00;;;2.23
72054;BMP280;59918;51.280;7.950;2023-01-19T10:01:43;96824.59;;;2.24
72054;BMP280;59918;51.280;7.950;2023-01-19T10:06:52;96820.38;;;2.31
72054;BMP280;59918;51.280;7.950;2023-01-19T10:09:31;96833.69;;;2.33
72054;BMP280;59918;51.280;7.950;2023-01-19T10:12:16;96837.81;;;2.34
72054;BMP280;59918;51.280;7.950;2023-01-19T10:15:10;96836.81;;;2.35
72054;BMP280;59918;51.280;7.950;2023-01-19T10:17:54;96845.84;;;2.37
72054;BMP280;59918;51.280;7.950;2023-01-19T10:20:32;96845.50;;;2.40
72054;BMP280;59918;51.280;7.950;2023-01-19T10:23:04;96858.63;;;2.44
72054;BMP280;59918;51.280;7.950;2023-01-19T10:25:38;96848.28;;;2.45
72054;BMP280;59918;51.280;7.950;2023-01-19T10:28:07;96848.72;;;2.49
72054;BMP280;59918;51.280;7.950;2023-01-19T10:30:38;96845.06;;;2.51
72054;BMP280;59918;51.280;7.950;2023-01-19T10:33:06;96848.97;;;2.53
72054;BMP280;59918;51.280;7.950;2023-01-19T10:35:31;96854.06;;;2.53
72054;BMP280;59918;51.280;7.950;2023-01-19T10:38:01;96856.66;;;2.60
72054;BMP280;59918;51.280;7.950;2023-01-19T10:40:32;96859.03;;;2.61
72054;BMP280;59918;51.280;7.950;2023-01-19T10:43:37;96861.56;;;2.61
72054;BMP280;59918;51.280;7.950;2023-01-19T10:48:55;96865.44;;;2.57
72054;BMP280;59918;51.280;7.950;2023-01-19T10:51:26;96876.72;;;2.55
72054;BMP280;59918;51.280;7.950;2023-01-19T10:54:14;96879.59;;;2.52
72054;BMP280;59918;51.280;7.950;2023-01-19T10:56:40;96875.75;;;2.56
72054;BMP280;59918;51.280;7.950;2023-01-19T10:59:05;96870.16;;;2.60
72054;BMP280;59918;51.280;7.950;2023-01-19T11:01:31;96882.75;;;2.68
72054;BMP280;59918;51.280;7.950;2023-01-19T11:04:19;96878.09;;;2.72
72054;BMP280;59918;51.280;7.950;2023-01-19T11:06:48;96877.59;;;2.76
72054;BMP280;59918;51.280;7.950;2023-01-19T11:09:19;96874.06;;;2.77
72054;BMP280;59918;51.280;7.950;2023-01-19T11:11:51;96878.38;;;2.77
72054;BMP280;59918;51.280;7.950;2023-01-19T11:14:20;96873.13;;;2.78
72054;BMP280;59918;51.280;7.950;2023-01-19T11:16:54;96876.16;;;2.88
72054;BMP280;59918;51.280;7.950;2023-01-19T11:19:30;96877.00;;;2.95
72054;BMP280;59918;51.280;7.950;2023-01-19T11:22:10;96881.84;;;2.90
72054;BMP280;59918;51.280;7.950;2023-01-19T11:24:39;96880.19;;;2.83
72054;BMP280;59918;51.280;7.950;2023-01-19T11:27:04;96875.44;;;2.80
72054;BMP280;59918;51.280;7.950;2023-01-19T11:29:29;96881.50;;;2.79
72054;BMP280;59918;51.280;7.950;2023-01-19T11:32:08;96888.59;;;2.83
72054;BMP280;59918;51.280;7.950;2023-01-19T11:34:37;96884.28;;;2.84
72054;BMP280;59918;51.280;7.950;2023-01-19T11:39:52;96890.06;;;2.78
72054;BMP280;59918;51.280;7.950;2023-01-19T11:42:18;96884.22;;;2.77
72054;BMP280;59918;51.280;7.950;2023-01-19T11:45:06;96885.59;;;2.80
72054;BMP280;59918;51.280;7.950;2023-01-19T11:47:40;96889.75;;;2.81
72054;BMP280;59918;51.280;7.950;2023-01-19T11:50:13;96886.59;;;2.79
72054;BMP280;59918;51.280;7.950;2023-01-19T11:53:06;96892.88;;;2.83
72054;BMP280;59918;51.280;7.950;2023-01-19T11:56:03;96892.00;;;2.90
72054;BMP280;59918;51.280;7.950;2023-01-19T11:58:32;96896.38;;;2.96
72054;BMP280;59918;51.280;7.950;2023-01-19T12:01:04;96899.09;;;2.94
72054;BMP280;59918;51.280;7.950;2023-01-19T12:03:44;96901.63;;;2.94
72054;BMP280;59918;51.280;7.950;2023-01-19T12:06:32;96904.41;;;2.99
72054;BMP280;59918;51.280;7.950;2023-01-19T12:09:18;96901.84;;;3.14
72054;BMP280;59918;51.280;7.950;2023-01-19T12:12:05;96904.59;;;3.33
72054;BMP280;59918;51.280;7.950;2023-01-19T12:14:50;96899.41;;;3.41
72054;BMP280;59918;51.280;7.950;2023-01-19T12:17:26;96895.69;;;3.43
72054;BMP280;59918;51.280;7.950;2023-01-19T12:20:12;96902.94;;;3.46
72054;BMP280;59918;51.280;7.950;2023-01-19T12:22:51;96900.00;;;3.63
72054;BMP280;59918;51.280;7.950;2023-01-19T12:25:24;96898.91;;;3.72
72054;BMP280;59918;51.280;7.950;2023-01-19T12:27:59;96897.75;;;3.75
72054;BMP280;59918;51.280;7.950;2023-01-19T12:30:27;96899.22;;;3.63
72054;BMP280;59918;51.280;7.950;2023-01-19T12:36:01;96905.38;;;3.54
72054;BMP280;59918;51.280;7.950;2023-01-19T12:41:25;96901.44;;;3.52
72054;BMP280;59918;51.280;7.950;2023-01-19T12:52:24;96900.97;;;3.63
72054;BMP280;59918;51.280;7.950;2023-01-19T12:57:52;96902.72;;;3.41
72054;BMP280;59918;51.280;7.950;2023-01-19T13:05:46;96922.84;;;3.22
72054;BMP280;59918;51.280;7.950;2023-01-19T13:19:13;96928.56;;;3.10
72054;BMP280;59918;51.280;7.950;2023-01-19T13:21:40;96926.03;;;2.95
72054;BMP280;59918;51.280;7.950;2023-01-19T13:25:03;96927.69;;;3.03
72054;BMP280;59918;51.280;7.950;2023-01-19T13:27:20;96927.69;;;3.17
72054;BMP280;59918;51.280;7.950;2023-01-19T13:29:45;96923.22;;;3.19
72054;BMP280;59918;51.280;7.950;2023-01-19T13:32:16;96929.19;;;3.32
72054;BMP280;59918;51.280;7.950;2023-01-19T13:34:57;96934.38;;;3.39
72054;BMP280;59918;51.280;7.950;2023-01-19T13:37:28;96931.75;;;3.32
72054;BMP280;59918;51.280;7.950;2023-01-19T13:39:58;96936.75;;;3.26
72054;BMP280;59918;51.280;7.950;2023-01-19T13:42:35;96940.88;;;3.27
72054;BMP280;59918;51.280;7.950;2023-01-19T13:47:53;96946.47;;;3.23
72054;BMP280;59918;51.280;7.950;2023-01-19T13:50:28;96946.91;;;3.26
72054;BMP280;59918;51.280;7.950;2023-01-19T13:52:57;96950.06;;;3.28
72054;BMP280;59918;51.280;7.950;2023-01-19T13:55:23;96947.19;;;3.31
72054;BMP280;59918;51.280;7.950;2023-01-19T13:57:49;96951.91;;;3.34
72054;BMP280;59918;51.280;7.950;2023-01-19T14:00:21;96952.16;;;3.39
72054;BMP280;59918;51.280;7.950;2023-01-19T14:02:58;96958.84;;;3.46
72054;BMP280;59918;51.280;7.950;2023-01-19T14:05:32;96965.00;;;3.52
72054;BMP280;59918;51.280;7.950;2023-01-19T14:10:36;96958.47;;;3.63
72054;BMP280;59918;51.280;7.950;2023-01-19T14:13:13;96965.25;;;3.57
72054;BMP280;59918;51.280;7.950;2023-01-19T14:15:41;96961.78;;;3.43
72054;BMP280;59918;51.280;7.950;2023-01-19T14:20:55;96962.16;;;3.26
72054;BMP280;59918;51.280;7.950;2023-01-19T14:26:37;96964.38;;;3.15
72054;BMP280;59918;51.280;7.950;2023-01-19T14:28:54;96962.28;;;3.18
72054;BMP280;59918;51.280;7.950;2023-01-19T14:31:22;96970.06;;;3.17
72054;BMP280;59918;51.280;7.950;2023-01-19T14:33:54;96974.53;;;3.15
72054;BMP280;59918;51.280;7.950;2023-01-19T14:36:33;96967.44;;;3.10
72054;BMP280;59918;51.280;7.950;2023-01-19T14:38:59;96982.25;;;3.07
72054;BMP280;59918;51.280;7.950;2023-01-19T14:43:53;96984.72;;;3.00
72054;BMP280;59918;51.280;7.950;2023-01-19T14:46:19;96985.66;;;2.99
72054;BMP280;59918;51.280;7.950;2023-01-19T14:48:46;96986.09;;;3.03
72054;BMP280;59918;51.280;7.950;2023-01-19T14:51:17;96990.03;;;3.05
72054;BMP280;59918;51.280;7.950;2023-01-19T14:53:52;96991.78;;;3.05
72054;BMP280;59918;51.280;7.950;2023-01-19T14:56:29;96996.72;;;3.06
72054;BMP280;59918;51.280;7.950;2023-01-19T14:58:56;96996.72;;;3.06
72054;BMP280;59918;51.280;7.950;2023-01-19T15:01:27;96999.25;;;3.06
72054;BMP280;59918;51.280;7.950;2023-01-19T15:03:53;97001.78;;;3.06
72054;BMP280;59918;51.280;7.950;2023-01-19T15:06:19;97005.09;;;3.07
72054;BMP280;59918;51.280;7.950;2023-01-19T15:08:51;97008.63;;;3.06
72054;BMP280;59918;51.280;7.950;2023-01-19T15:13:56;97011.50;;;3.03
72054;BMP280;59918;51.280;7.950;2023-01-19T15:16:25;97010.19;;;3.07
72054;BMP280;59918;51.280;7.950;2023-01-19T15:18:51;97017.81;;;3.07
72054;BMP280;59918;51.280;7.950;2023-01-19T15:21:18;97017.03;;;3.06
72054;BMP280;59918;51.280;7.950;2023-01-19T15:23:44;97024.03;;;3.04
72054;BMP280;59918;51.280;7.950;2023-01-19T15:26:16;97024.66;;;3.06
72054;BMP280;59918;51.280;7.950;2023-01-19T15:28:42;97026.91;;;3.01
72054;BMP280;59918;51.280;7.950;2023-01-19T15:31:28;97037.06;;;3.01
72054;BMP280;59918;51.280;7.950;2023-01-19T15:33:53;97027.44;;;2.97
72054;BMP280;59918;51.280;7.950;2023-01-19T15:36:23;97023.50;;;2.94
72054;BMP280;59918;51.280;7.950;2023-01-19T15:38:48;97029.75;;;2.92
72054;BMP280;59918;51.280;7.950;2023-01-19T15:41:25;97035.59;;;2.92
72054;BMP280;59918;51.280;7.950;2023-01-19T15:43:51;97037.06;;;2.87